Time;durP1;ratioP1;P1;durP2;ratioP2;P2;SDS_P1;SDS_P2;PMS_P1;PMS_P2;Temp;Humidity;BMP_temperature;BMP_pressure;BME280_temperature;BME280_humidity;BME280_pressure;Samples;Min_cycle;Max_cycle;Signal;HPM_P1;HPM_P2
2021/12/26 00:01:38;;;;;;;14.17;9.37;;;4.60;99.90;;;4.89;71.33;96622.78;5007640;28;20075;-45
2021/12/26 00:04:07;;;;;;;12.87;8.73;;;4.60;99.90;;;4.89;71.87;96618.34;5007865;28;20083;-47
2021/12/26 00:06:35;;;;;;;19.67;10.60;;;4.60;99.90;;;4.89;71.73;96620.16;5007162;28;20041;-46
2021/12/26 00:09:03;;;;;;;29.87;12.23;;;4.60;99.90;;;4.82;71.92;96614.63;5007461;28;20379;-45
2021/12/26 00:11:31;;;;;;;15.47;9.77;;;4.50;99.90;;;4.79;72.00;96614.09;5007903;28;20046;-45
2021/12/26 00:13:59;;;;;;;14.63;9.80;;;4.50;99.90;;;4.70;71.44;96610.56;5007165;28;20049;-46
2021/12/26 00:16:26;;;;;;;17.93;8.87;;;4.40;99.90;;;4.67;71.85;96611.69;5008961;28;20344;-45
2021/12/26 00:18:58;;;;;;;13.17;8.43;;;4.40;99.90;;;4.72;71.86;96613.88;5007480;28;20410;-45
2021/12/26 00:21:26;;;;;;;15.23;8.73;;;4.40;99.90;;;4.73;71.80;96605.81;5006773;28;20394;-45
2021/12/26 00:23:55;;;;;;;12.17;8.40;;;4.50;99.90;;;4.78;71.64;96605.38;5008087;28;20254;-45
2021/12/26 00:26:31;;;;;;;14.80;9.13;;;4.60;99.90;;;4.77;71.60;96611.63;5006949;28;20233;-47
2021/12/26 00:29:01;;;;;;;13.23;8.30;;;4.50;99.90;;;4.74;71.30;96612.75;5008230;28;20076;-47
2021/12/26 00:31:29;;;;;;;14.67;8.97;;;4.50;99.90;;;4.72;71.83;96609.44;5007865;28;20185;-45
2021/12/26 00:33:58;;;;;;;22.87;13.67;;;4.50;99.90;;;4.74;71.68;96607.47;5007111;28;20098;-46
2021/12/26 00:36:26;;;;;;;17.53;10.33;;;4.50;99.90;;;4.76;72.13;96603.88;5039254;28;20411;-45
2021/12/26 00:38:54;;;;;;;11.87;8.17;;;4.60;99.90;;;4.75;71.88;96608.31;5007880;28;20042;-46
2021/12/26 00:41:22;;;;;;;12.20;8.33;;;4.60;99.90;;;4.79;72.09;96606.19;5021460;28;20050;-46
2021/12/26 00:43:52;;;;;;;12.87;8.57;;;4.60;99.90;;;4.84;71.94;96611.84;5023233;28;20259;-45
2021/12/26 00:46:21;;;;;;;11.87;8.20;;;4.60;99.90;;;4.85;72.28;96611.69;5005828;28;20258;-48
2021/12/26 00:48:49;;;;;;;12.77;7.90;;;4.60;99.90;;;4.87;71.57;96609.75;5006549;28;20050;-46
2021/12/26 00:51:17;;;;;;;13.47;9.03;;;4.60;99.90;;;4.88;71.30;96613.19;5008354;28;20046;-46
2021/12/26 00:53:46;;;;;;;14.67;8.87;;;4.60;99.90;;;4.89;72.36;96609.59;5004657;28;20052;-45
2021/12/26 00:56:17;;;;;;;12.70;8.60;;;4.60;99.90;;;4.89;72.29;96601.69;5007100;28;20054;-46
2021/12/26 00:58:45;;;;;;;13.17;8.90;;;4.60;99.90;;;4.90;71.68;96608.59;5021067;28;20292;-46
2021/12/26 01:01:13;;;;;;;14.50;9.67;;;4.60;99.90;;;4.91;71.94;96607.63;5023169;28;20050;-46
2021/12/26 01:03:43;;;;;;;15.20;9.20;;;4.70;99.90;;;4.91;72.12;96605.81;5006657;28;20056;-47
2021/12/26 01:06:11;;;;;;;18.27;10.13;;;4.70;99.90;;;4.93;71.94;96605.69;5021354;28;20062;-46
2021/12/26 01:08:42;;;;;;;15.83;9.30;;;4.70;99.90;;;4.90;71.26;96604.19;5005460;28;20068;-46
2021/12/26 01:11:31;;;;;;;14.80;10.20;;;4.70;99.90;;;4.89;71.53;96604.31;5023977;28;20478;-46
2021/12/26 01:14:00;;;;;;;15.27;9.77;;;4.60;99.90;;;4.93;71.18;96603.84;5021958;28;20064;-46
2021/12/26 01:16:49;;;;;;;14.77;11.03;;;4.60;99.90;;;4.92;72.16;96607.50;5005486;28;20064;-46
2021/12/26 01:19:26;;;;;;;15.73;10.03;;;4.70;99.90;;;4.92;72.27;96598.72;5020939;28;20371;-47
2021/12/26 01:21:55;;;;;;;14.55;11.38;;;4.70;99.90;;;4.92;71.39;96602.22;5021132;28;20049;-46
2021/12/26 01:24:26;;;;;;;16.40;10.67;;;4.70;99.90;;;4.96;71.55;96596.63;5039739;28;20067;-45
2021/12/26 01:26:54;;;;;;;19.33;11.90;;;4.70;99.90;;;4.92;71.44;96604.84;5022995;28;20356;-46
2021/12/26 01:29:34;;;;;;;18.00;11.20;;;4.60;99.90;;;4.90;71.95;96603.31;5040210;28;20076;-45
2021/12/26 01:32:04;;;;;;;17.17;11.43;;;4.60;99.90;;;4.90;71.82;96604.19;5022734;28;20056;-45
2021/12/26 01:34:51;;;;;;;19.83;11.57;;;4.60;99.90;;;4.90;71.89;96614.72;5006622;28;20271;-47
2021/12/26 01:37:30;;;;;;;34.70;19.73;;;4.60;99.90;;;4.91;72.09;96616.38;5023139;28;20260;-46
2021/12/26 01:40:08;;;;;;;25.27;13.17;;;4.60;99.90;;;4.91;71.23;96615.56;5006463;28;20062;-47
2021/12/26 01:42:46;;;;;;;25.83;14.43;;;4.60;99.90;;;4.90;72.24;96612.09;5005478;28;20064;-45
2021/12/26 01:45:42;;;;;;;21.55;13.00;;;4.60;99.90;;;4.88;71.49;96615.84;5005300;28;20069;-46
2021/12/26 01:48:10;;;;;;;19.53;11.23;;;4.60;99.90;;;4.87;71.44;96608.91;5006650;28;20055;-46
2021/12/26 01:50:47;;;;;;;23.27;13.20;;;4.60;99.90;;;4.86;71.28;96613.34;5005645;28;20069;-46
2021/12/26 01:53:16;;;;;;;19.63;12.23;;;4.60;99.90;;;4.87;72.31;96609.75;5023181;28;20058;-46
2021/12/26 01:55:46;;;;;;;19.13;12.50;;;4.60;99.90;;;4.86;71.96;96615.97;5025388;28;20057;-45
2021/12/26 01:58:21;;;;;;;16.30;10.40;;;4.60;99.90;;;4.86;71.61;96623.06;5025282;28;20372;-47
2021/12/26 02:00:59;;;;;;;18.77;11.23;;;4.60;99.90;;;4.85;71.72;96621.44;5043275;28;20053;-46
2021/12/26 02:03:28;;;;;;;23.30;12.87;;;4.50;99.90;;;4.85;71.39;96619.63;5038940;28;20054;-46
2021/12/26 02:05:56;;;;;;;23.93;15.10;;;4.60;99.90;;;4.87;72.01;96616.84;4990397;28;20233;-46
2021/12/26 02:08:25;;;;;;;20.20;13.07;;;4.60;99.90;;;4.87;71.74;96617.66;4975040;28;20046;-45
2021/12/26 02:10:53;;;;;;;17.97;11.80;;;4.60;99.90;;;4.88;71.99;96618.47;4990018;28;20472;-46
2021/12/26 02:13:21;;;;;;;17.33;11.23;;;4.60;99.90;;;4.83;71.19;96602.28;5006273;28;20271;-46
2021/12/26 02:15:51;;;;;;;19.97;12.23;;;4.60;99.90;;;4.82;71.27;96606.72;4989920;28;20060;-46
2021/12/26 02:18:22;;;;;;;19.00;12.30;;;4.60;99.90;;;4.83;71.12;96610.22;4988914;28;20054;-46
2021/12/26 02:23:29;;;;;;;16.43;10.67;;;4.60;99.90;;;4.85;71.98;96609.06;4988769;28;20065;-48
2021/12/26 02:28:28;;;;;;;16.60;10.27;;;4.60;99.90;;;4.83;72.12;96603.13;5004004;28;20054;-47
2021/12/26 02:30:58;;;;;;;17.37;10.47;;;4.60;99.90;;;4.83;71.49;96604.94;5004526;28;20066;-46
2021/12/26 02:33:26;;;;;;;20.07;11.23;;;4.60;99.90;;;4.83;71.69;96610.22;4989434;28;20060;-46
2021/12/26 02:35:54;;;;;;;17.23;11.17;;;4.50;99.90;;;4.83;71.58;96608.38;5022166;28;20064;-46
2021/12/26 02:38:22;;;;;;;19.47;12.37;;;4.50;99.90;;;4.82;71.37;96605.91;4989283;28;20054;-45
2021/12/26 02:40:56;;;;;;;18.63;12.03;;;4.50;99.90;;;4.79;72.44;96604.41;4989640;28;20061;-46
2021/12/26 02:43:25;;;;;;;;;;;4.50;99.90;;;4.76;71.92;96599.41;4988770;28;20348;-45
2021/12/26 02:45:53;;;;;;;18.30;11.47;;;4.50;99.90;;;4.79;71.55;96598.28;4988879;28;19921;-45
2021/12/26 02:48:21;;;;;;;16.77;10.53;;;4.50;99.90;;;4.79;71.93;96599.13;4990245;28;20056;-45
2021/12/26 02:50:55;;;;;;;18.93;11.70;;;4.50;99.90;;;4.80;71.97;96606.03;5006096;28;20046;-45
2021/12/26 02:53:26;;;;;;;20.20;10.77;;;4.50;99.90;;;4.80;71.88;96603.41;5004722;28;20046;-46
2021/12/26 02:55:57;;;;;;;16.07;10.20;;;4.50;99.90;;;4.81;71.69;96606.88;5021223;28;20062;-47
2021/12/26 02:58:26;;;;;;;15.50;10.40;;;4.50;99.90;;;4.79;72.11;96600.91;5003889;28;20050;-45
2021/12/26 03:01:12;;;;;;;16.90;9.93;;;4.50;99.90;;;4.80;71.31;96603.41;4989051;28;20057;-45
2021/12/26 03:03:41;;;;;;;17.17;11.03;;;4.50;99.90;;;4.80;71.71;96599.94;4989046;28;20249;-46
2021/12/26 03:06:37;;;;;;;17.20;10.07;;;4.50;99.90;;;4.79;71.19;96601.75;4988223;28;20060;-45
2021/12/26 03:09:04;;;;;;;16.40;10.90;;;4.50;99.90;;;4.79;71.58;96599.13;4989422;28;20062;-46
2021/12/26 03:11:32;;;;;;;17.90;10.43;;;4.50;99.90;;;4.77;71.52;96600.22;4988092;28;20046;-45
2021/12/26 03:14:00;;;;;;;16.50;10.47;;;4.40;99.90;;;4.76;71.67;96599.41;4973309;28;20050;-45
2021/12/26 03:16:28;;;;;;;16.67;10.03;;;4.40;99.90;;;4.74;72.23;96606.66;4987472;28;20347;-47
2021/12/26 03:18:59;;;;;;;18.90;10.57;;;4.40;99.90;;;4.74;72.09;96601.38;5020093;28;20348;-45
2021/12/26 03:21:28;;;;;;;19.33;11.20;;;4.40;99.90;;;4.73;71.88;96610.28;4990690;28;20389;-47
2021/12/26 03:23:57;;;;;;;17.80;11.27;;;4.40;99.90;;;4.73;71.62;96611.09;5004958;28;20455;-45
2021/12/26 03:26:25;;;;;;;20.23;11.50;;;4.50;99.90;;;4.73;72.35;96611.09;4990438;28;20264;-45
2021/12/26 03:28:52;;;;;;;18.33;10.30;;;4.50;99.90;;;4.76;72.24;96615.22;5004520;28;20062;-48
2021/12/26 03:31:20;;;;;;;18.03;10.57;;;4.50;99.90;;;4.76;72.35;96617.06;5005292;28;20245;-46
2021/12/26 03:33:48;;;;;;;17.73;11.13;;;4.50;99.90;;;4.76;71.57;96617.06;5020431;28;20337;-45
2021/12/26 03:36:16;;;;;;;17.53;10.67;;;4.50;99.90;;;4.76;71.68;96614.41;5003515;28;20058;-45
2021/12/26 03:38:44;;;;;;;19.87;11.07;;;4.50;99.90;;;4.77;72.57;96619.53;5021548;28;20357;-47
2021/12/26 03:41:17;;;;;;;20.63;11.63;;;4.50;99.90;;;4.77;72.18;96619.53;4990428;28;20054;-45
2021/12/26 03:43:52;;;;;;;16.63;11.17;;;4.40;99.90;;;4.75;72.20;96616.22;5004016;28;20077;-45
2021/12/26 03:46:20;;;;;;;28.63;11.23;;;4.50;99.90;;;4.77;71.66;96621.34;5004431;28;20054;-46
2021/12/26 03:48:49;;;;;;;21.73;12.40;;;4.40;99.90;;;4.76;72.01;96614.41;4987855;28;20054;-47
2021/12/26 03:51:19;;;;;;;19.33;11.77;;;4.50;99.90;;;4.76;72.51;96612.59;4987800;28;20256;-46
2021/12/26 03:53:48;;;;;;;22.10;12.80;;;4.50;99.90;;;4.77;72.12;96610.78;4986005;28;20058;-45
2021/12/26 03:56:17;;;;;;;20.37;12.40;;;4.50;99.90;;;4.76;71.83;96612.59;4987004;28;20054;-45
2021/12/26 03:59:00;;;;;;;25.17;14.50;;;4.50;99.90;;;4.78;72.27;96610.63;5020606;28;20356;-45
2021/12/26 04:01:28;;;;;;;21.50;14.57;;;4.50;99.90;;;4.79;72.21;96612.31;4990114;28;20342;-45
2021/12/26 04:03:57;;;;;;;19.77;11.37;;;4.50;99.90;;;4.80;72.08;96599.94;5020110;28;20054;-45
2021/12/26 04:06:25;;;;;;;23.23;11.27;;;4.50;99.90;;;4.81;71.82;96604.22;5003273;28;20080;-47
2021/12/26 04:08:53;;;;;;;15.70;10.43;;;4.50;99.90;;;4.80;72.37;96602.59;4987482;28;20369;-46
2021/12/26 04:11:21;;;;;;;17.37;10.63;;;4.50;99.90;;;4.81;71.88;96601.59;5019696;28;20327;-46
2021/12/26 04:13:50;;;;;;;19.53;10.17;;;4.50;99.90;;;4.82;72.01;96605.91;5003214;28;20046;-47
2021/12/26 04:16:18;;;;;;;20.17;10.57;;;4.50;99.90;;;4.83;72.24;96600.47;5019028;28;20073;-45
2021/12/26 04:18:46;;;;;;;22.43;11.63;;;4.50;99.90;;;4.80;72.48;96606.03;4987628;28;20064;-45
2021/12/26 04:21:15;;;;;;;17.30;10.67;;;4.50;99.90;;;4.77;71.95;96608.16;5020415;28;20060;-47
2021/12/26 04:23:55;;;;;;;18.60;10.20;;;4.40;99.90;;;4.74;72.09;96604.84;5003916;28;20069;-48
2021/12/26 04:26:23;;;;;;;17.93;10.13;;;4.40;99.90;;;4.77;71.61;96602.88;4988133;28;20157;-45
2021/12/26 04:28:51;;;;;;;16.80;9.33;;;4.50;99.90;;;4.75;71.92;96605.69;5018934;28;20365;-45
2021/12/26 04:31:19;;;;;;;15.50;9.43;;;4.50;99.90;;;4.76;72.08;96606.50;4988123;28;20054;-49
2021/12/26 04:33:49;;;;;;;19.97;9.93;;;4.50;99.90;;;4.72;71.70;96601.53;5019475;28;20058;-46
2021/12/26 04:36:18;;;;;;;19.23;10.57;;;4.40;99.90;;;4.72;71.57;96601.53;4969825;28;20058;-47
2021/12/26 04:38:47;;;;;;;20.17;10.83;;;4.40;99.90;;;4.74;72.64;96609.28;4986543;28;20060;-45
2021/12/26 04:41:16;;;;;;;28.33;9.33;;;4.40;99.90;;;4.73;72.14;96603.19;5021585;28;20386;-45
2021/12/26 04:43:52;;;;;;;15.57;9.23;;;4.40;99.90;;;4.69;71.84;96603.63;4989257;28;20080;-46
2021/12/26 04:46:34;;;;;;;19.43;10.13;;;4.40;99.90;;;4.70;72.18;96603.47;4985714;28;20062;-45
2021/12/26 04:49:05;;;;;;;20.00;10.30;;;4.40;99.90;;;4.73;72.39;96605.00;4987729;28;20046;-46
2021/12/26 04:51:33;;;;;;;35.03;11.47;;;4.50;99.90;;;4.76;72.34;96611.78;5018914;28;20256;-45
2021/12/26 04:54:04;;;;;;;30.77;11.10;;;4.50;99.90;;;4.74;71.98;96606.66;5003307;28;20065;-46
2021/12/26 04:56:34;;;;;;;33.33;12.37;;;4.50;99.90;;;4.73;71.99;96605.00;4985681;28;20054;-45
2021/12/26 04:59:03;;;;;;;20.33;11.33;;;4.40;99.90;;;4.70;72.36;96607.94;5003001;28;20050;-46
2021/12/26 05:01:35;;;;;;;25.70;10.47;;;4.40;99.90;;;4.71;71.98;96617.47;4986859;28;20356;-45
2021/12/26 05:04:04;;;;;;;29.23;11.40;;;4.40;99.90;;;4.71;72.33;96606.94;4988157;28;20054;-45
2021/12/26 05:06:32;;;;;;;20.43;11.27;;;4.40;99.90;;;4.71;72.16;96607.78;4988925;28;20058;-46
2021/12/26 05:09:04;;;;;;;20.47;10.70;;;4.40;99.90;;;4.73;72.65;96602.38;4986331;28;20073;-48
2021/12/26 05:11:33;;;;;;;22.50;11.00;;;4.50;99.90;;;4.74;72.62;96602.19;4986536;28;20050;-45
2021/12/26 05:14:01;;;;;;;28.30;12.33;;;4.50;99.90;;;4.74;72.45;96609.28;4987299;28;20042;-45
2021/12/26 05:16:29;;;;;;;24.63;10.97;;;4.50;99.90;;;4.73;71.70;96599.72;4987262;28;20050;-46
2021/12/26 05:18:58;;;;;;;25.47;11.33;;;4.50;99.90;;;4.77;72.83;96601.09;5003643;28;20058;-47
2021/12/26 05:21:26;;;;;;;55.57;12.87;;;4.50;99.90;;;4.78;72.36;96605.38;5002753;28;20061;-46
2021/12/26 05:23:55;;;;;;;25.87;11.70;;;4.60;99.90;;;4.76;72.46;96604.69;5018461;28;20084;-48
2021/12/26 05:26:24;;;;;;;21.83;10.30;;;4.50;99.90;;;4.77;72.65;96602.88;4987124;28;20062;-45
2021/12/26 05:28:52;;;;;;;30.23;11.50;;;4.50;99.90;;;4.77;72.26;96606.38;4986138;28;20283;-45
2021/12/26 05:31:21;;;;;;;25.87;12.80;;;4.50;99.90;;;4.76;72.68;96599.41;5008361;28;20054;-46
2021/12/26 05:33:50;;;;;;;21.17;10.93;;;4.50;99.90;;;4.78;72.48;96594.00;5005956;28;20371;-45
2021/12/26 05:36:18;;;;;;;23.17;11.97;;;4.50;99.90;;;4.81;72.14;96594.53;4991455;28;20046;-47
2021/12/26 05:38:48;;;;;;;18.03;10.13;;;4.50;99.90;;;4.80;72.24;96603.41;4989172;28;20072;-46
2021/12/26 05:41:16;;;;;;;17.40;10.70;;;4.50;99.90;;;4.78;72.73;96602.72;5006249;28;20053;-46
2021/12/26 05:43:57;;;;;;;19.97;11.43;;;4.50;99.90;;;4.77;72.13;96603.72;4990414;28;20060;-46
2021/12/26 05:46:25;;;;;;;20.80;11.60;;;4.50;99.90;;;4.80;72.10;96607.84;5006580;28;20060;-45
2021/12/26 05:48:53;;;;;;;18.47;11.17;;;4.50;99.90;;;4.81;72.71;96604.22;5006347;28;20054;-48
2021/12/26 05:51:32;;;;;;;27.37;12.20;;;4.50;99.90;;;4.81;72.54;96606.88;5021941;28;20055;-47
2021/12/26 05:54:26;;;;;;;19.30;11.00;;;4.50;99.90;;;4.81;72.91;96601.59;4988978;28;20057;-46
2021/12/26 05:56:54;;;;;;;22.47;12.37;;;4.50;99.90;;;4.81;72.92;96597.16;5006596;28;20065;-45
2021/12/26 05:59:22;;;;;;;24.63;12.10;;;4.50;99.90;;;4.81;72.30;96601.59;4991031;28;20046;-45
2021/12/26 06:01:50;;;;;;;19.80;11.47;;;4.50;99.90;;;4.81;72.15;96597.16;5023349;28;20050;-45
2021/12/26 06:04:19;;;;;;;22.33;11.90;;;4.50;99.90;;;4.81;72.65;96591.88;5021723;28;20085;-46
2021/12/26 06:06:47;;;;;;;20.80;10.80;;;4.50;99.90;;;4.83;72.56;96592.56;5004496;28;20073;-45
2021/12/26 06:09:17;;;;;;;20.90;11.27;;;4.50;99.90;;;4.86;72.30;96596.69;4991016;28;20360;-45
2021/12/26 06:11:46;;;;;;;19.20;10.83;;;4.50;99.90;;;4.86;72.72;96597.53;4972742;28;20056;-45
2021/12/26 06:14:14;;;;;;;18.23;9.90;;;4.50;99.90;;;4.87;72.22;96595.75;5005458;28;20065;-45
2021/12/26 06:16:43;;;;;;;18.27;10.37;;;4.60;99.90;;;4.91;72.20;96591.81;5006019;28;20197;-46
2021/12/26 06:19:27;;;;;;;19.85;10.52;;;4.60;99.90;;;4.92;72.12;96589.03;4989479;28;20068;-46
2021/12/26 06:22:13;;;;;;;18.33;9.73;;;4.60;99.90;;;4.93;72.35;96597.75;4993607;28;20064;-47
2021/12/26 06:25:19;;;;;;;20.77;10.43;;;4.60;99.90;;;4.92;72.10;96604.84;5006716;28;20069;-48
2021/12/26 06:27:52;;;;;;;19.13;10.30;;;4.60;99.90;;;4.91;72.95;96595.28;4990518;28;20045;-45
2021/12/26 06:30:26;;;;;;;20.65;10.15;;;4.60;99.90;;;4.93;72.56;96601.22;4999883;28;20448;-46
2021/12/26 06:32:59;;;;;;;17.73;10.02;;;4.70;99.90;;;4.96;72.38;96605.34;4992819;28;20068;-46
2021/12/26 06:35:46;;;;;;;22.97;11.50;;;4.70;99.90;;;4.96;72.29;96597.44;4990924;28;20279;-46
2021/12/26 06:38:34;;;;;;;18.97;11.60;;;4.70;99.90;;;4.98;72.20;96607.84;4994704;28;20057;-45
2021/12/26 06:41:20;;;;;;;21.53;12.87;;;4.70;99.90;;;5.00;72.70;96606.75;4991519;28;20378;-47
2021/12/26 06:44:07;;;;;;;21.53;11.77;;;4.70;99.90;;;5.00;72.29;96612.00;4990123;28;20738;-46
2021/12/26 06:46:52;;;;;;;27.60;12.80;;;4.80;99.90;;;5.00;72.77;96613.81;4989156;28;20062;-45
2021/12/26 06:49:41;;;;;;;22.60;12.93;;;4.80;99.90;;;5.01;72.01;96615.47;4989832;28;20559;-47
2021/12/26 06:52:09;;;;;;;24.27;13.23;;;4.80;99.90;;;5.02;72.42;96610.06;5003626;28;20398;-45
2021/12/26 06:54:40;;;;;;;31.07;14.27;;;4.70;99.90;;;5.01;72.56;96612.84;4989031;28;20061;-46
2021/12/26 06:57:08;;;;;;;21.73;11.80;;;4.80;99.90;;;5.01;72.36;96618.09;4989231;28;20178;-47
2021/12/26 06:59:36;;;;;;;30.20;12.93;;;4.80;99.90;;;4.99;72.45;96612.16;5005068;28;20165;-46
2021/12/26 07:02:04;;;;;;;28.77;14.73;;;4.80;99.90;;;5.00;72.73;96616.44;5005399;28;20054;-45
2021/12/26 07:05:02;;;;;;;30.73;14.83;;;4.80;99.90;;;4.98;72.36;96619.22;4991896;28;20309;-45
2021/12/26 07:07:44;;;;;;;26.97;13.17;;;4.70;99.90;;;4.98;72.40;96610.47;5003663;28;20061;-46
2021/12/26 07:10:12;;;;;;;28.20;14.17;;;4.70;99.90;;;4.98;72.96;96615.75;4989295;28;20537;-46
2021/12/26 07:12:41;;;;;;;26.63;13.77;;;4.70;99.90;;;4.98;72.14;96618.41;5003968;28;20062;-47
2021/12/26 07:15:34;;;;;;;53.20;14.40;;;4.70;99.90;;;5.00;72.25;96616.44;5002936;28;20057;-46
2021/12/26 07:18:03;;;;;;;46.87;14.60;;;4.70;99.90;;;4.98;73.06;96619.22;5020663;28;20054;-45
2021/12/26 07:20:35;;;;;;;26.40;13.20;;;4.70;99.90;;;5.00;72.56;96624.34;5004582;28;20077;-46
2021/12/26 07:23:21;;;;;;;23.50;13.13;;;4.70;99.90;;;4.97;72.81;96622.84;4990307;28;20068;-46
2021/12/26 07:25:53;;;;;;;25.20;13.30;;;4.70;99.90;;;4.99;72.53;96626.16;5004230;28;20353;-46
2021/12/26 07:28:22;;;;;;;27.40;14.67;;;4.70;99.90;;;4.99;72.82;96623.53;5004810;28;20073;-46
2021/12/26 07:31:00;;;;;;;26.60;15.23;;;4.70;99.90;;;4.99;72.47;96633.25;4992580;28;20383;-45
2021/12/26 07:33:28;;;;;;;31.17;15.20;;;4.70;99.90;;;4.99;73.07;96631.44;4988096;28;20245;-47
2021/12/26 07:36:02;;;;;;;27.90;14.30;;;4.70;99.90;;;4.98;72.70;96634.22;5004808;28;20054;-47
2021/12/26 07:38:37;;;;;;;35.43;16.50;;;4.70;99.90;;;4.98;72.96;96634.22;4988440;28;20064;-46
2021/12/26 07:41:24;;;;;;;42.23;19.90;;;4.70;99.90;;;4.95;72.13;96634.53;5004812;28;20065;-46
2021/12/26 07:43:53;;;;;;;56.83;19.17;;;4.60;99.90;;;4.92;72.82;96643.56;5002850;28;20081;-46
2021/12/26 07:46:39;;;;;;;88.80;35.63;;;4.60;99.90;;;4.90;72.86;96642.88;4993465;28;20076;-47
2021/12/26 07:49:18;;;;;;;58.30;24.27;;;4.60;99.90;;;4.90;72.80;96643.75;4989330;28;20272;-46
2021/12/26 07:52:29;;;;;;;76.83;29.97;;;4.60;99.90;;;4.88;72.36;96642.22;4984929;28;20356;-45
2021/12/26 07:55:15;;;;;;;68.77;28.77;;;4.60;99.90;;;4.87;72.58;96646.66;4990152;28;20434;-45
2021/12/26 07:58:02;;;;;;;52.27;23.77;;;4.60;99.90;;;4.87;72.71;96638.75;4989243;28;20065;-47
2021/12/26 08:00:48;;;;;;;37.90;20.03;;;4.60;99.90;;;4.87;73.04;96645.84;4988622;28;20548;-46
2021/12/26 08:03:36;;;;;;;57.67;26.23;;;4.60;99.90;;;4.85;72.92;96646.00;5004648;28;20066;-45
2021/12/26 08:06:23;;;;;;;39.13;20.57;;;4.60;99.90;;;4.84;72.68;96646.13;4990239;28;20088;-46
2021/12/26 08:08:52;;;;;;;50.47;20.73;;;4.60;99.90;;;4.88;72.71;96650.13;5003503;28;20058;-45
2021/12/26 08:11:22;;;;;;;51.50;21.43;;;4.60;99.90;;;4.90;72.67;96653.44;5003474;28;20064;-47
2021/12/26 08:13:51;;;;;;;43.00;23.10;;;4.70;99.90;;;4.90;72.71;96648.16;5003898;28;20058;-45
2021/12/26 08:16:18;;;;;;;42.87;21.17;;;4.70;99.90;;;4.93;72.96;96650.50;4988466;28;20061;-45
2021/12/26 08:18:47;;;;;;;69.80;24.00;;;4.70;99.90;;;4.92;72.40;96647.06;4986548;28;20046;-45
2021/12/26 08:21:15;;;;;;;76.77;33.23;;;4.70;99.90;;;4.91;72.67;96649.84;4987822;28;20165;-47
2021/12/26 08:23:42;;;;;;;55.53;26.83;;;4.70;99.90;;;4.93;72.34;96645.25;4986513;28;20367;-46
2021/12/26 08:26:11;;;;;;;58.03;23.83;;;4.70;99.90;;;4.91;72.66;96644.56;4987415;28;20058;-45
2021/12/26 08:28:40;;;;;;;49.30;23.27;;;4.70;99.90;;;4.93;73.02;96647.88;4988034;28;20066;-46
2021/12/26 08:31:09;;;;;;;31.50;21.17;;;4.70;99.90;;;4.95;72.31;96637.19;4989029;28;20443;-47
2021/12/26 08:33:37;;;;;;;40.47;18.77;;;4.70;99.90;;;4.99;73.40;96646.44;4986519;28;20370;-45
2021/12/26 08:36:05;;;;;;;39.10;20.63;;;4.80;99.90;;;5.01;73.51;96639.22;4987255;28;20064;-48
2021/12/26 08:38:34;;;;;;;34.33;19.47;;;4.80;99.90;;;5.02;72.72;96651.41;4987021;28;20056;-46
2021/12/26 08:41:03;;;;;;;40.47;20.03;;;4.70;99.90;;;5.02;72.33;96651.41;4988390;28;20046;-47
2021/12/26 08:43:31;;;;;;;35.90;22.37;;;4.80;99.90;;;5.03;73.16;96645.97;4987927;28;20364;-46
2021/12/26 08:45:58;;;;;;;41.07;23.57;;;4.80;99.90;;;5.08;73.60;96648.19;4987975;28;20066;-46
2021/12/26 08:48:27;;;;;;;37.53;21.33;;;4.80;99.90;;;5.11;72.96;96639.94;4986475;28;20088;-46
2021/12/26 08:50:55;;;;;;;47.27;24.20;;;4.90;99.90;;;5.15;73.26;96649.22;4988479;28;20062;-48
2021/12/26 08:53:26;;;;;;;46.77;22.77;;;4.90;99.90;;;5.18;73.71;96642.84;4987341;28;20043;-49
2021/12/26 08:55:57;;;;;;;43.80;22.80;;;4.90;99.90;;;5.20;73.27;96652.25;4987482;28;20046;-45
2021/12/26 08:58:26;;;;;;;44.83;24.83;;;5.00;99.90;;;5.22;72.94;96645.00;4987301;28;20054;-45
2021/12/26 09:00:55;;;;;;;39.50;23.40;;;5.00;99.90;;;5.27;73.09;96650.66;5011169;28;20041;-47
2021/12/26 09:03:23;;;;;;;39.30;22.73;;;5.10;99.90;;;5.31;73.32;96657.28;5016163;28;20060;-45
2021/12/26 09:05:51;;;;;;;29.93;18.07;;;5.10;99.90;;;5.35;72.77;96649.06;5017024;28;20264;-46
2021/12/26 09:08:20;;;;;;;27.23;17.70;;;5.20;99.90;;;5.38;73.22;96662.78;5014837;28;20057;-45
2021/12/26 09:10:49;;;;;;;28.53;15.70;;;5.20;99.90;;;5.40;73.69;96654.72;5016389;28;20057;-45
2021/12/26 09:13:16;;;;;;;28.67;15.13;;;5.20;99.90;;;5.41;73.15;96661.63;5013930;28;20060;-46
2021/12/26 09:15:44;;;;;;;26.13;14.63;;;5.30;99.90;;;5.43;72.99;96663.16;5017535;28;20041;-47
2021/12/26 09:18:12;;;;;;;26.00;14.27;;;5.30;99.90;;;5.46;73.47;96662.84;5013883;28;20049;-44
2021/12/26 09:20:40;;;;;;;25.97;14.57;;;5.30;99.90;;;5.50;73.53;96664.19;5019625;28;20050;-45
2021/12/26 09:23:08;;;;;;;27.83;15.23;;;5.30;99.90;;;5.54;73.61;96664.72;5026173;28;20246;-45
2021/12/26 09:25:37;;;;;;;25.27;13.77;;;5.40;99.90;;;5.57;73.16;96661.78;5026886;28;20045;-47
2021/12/26 09:28:04;;;;;;;25.80;15.40;;;5.40;99.90;;;5.62;73.54;96666.59;5026808;28;20042;-49
2021/12/26 09:30:32;;;;;;;24.77;14.40;;;5.50;99.90;;;5.64;73.17;96667.25;5027435;28;20241;-45
2021/12/26 09:33:00;;;;;;;24.13;14.07;;;5.60;99.90;;;5.67;73.48;96669.59;5026857;28;20340;-46
2021/12/26 09:35:28;;;;;;;23.80;14.00;;;5.60;99.90;;;5.70;73.78;96670.13;5025928;28;20128;-47
2021/12/26 09:37:57;;;;;;;25.63;14.17;;;5.60;99.90;;;5.72;73.52;96662.06;5026254;28;20061;-45
2021/12/26 09:40:24;;;;;;;27.33;15.57;;;5.60;99.90;;;5.76;73.16;96667.84;5027422;28;20054;-46
2021/12/26 09:42:52;;;;;;;29.00;16.10;;;5.60;99.90;;;5.78;73.76;96663.22;5025700;28;20059;-45
2021/12/26 09:45:20;;;;;;;29.10;16.73;;;5.60;99.90;;;5.81;73.19;96668.22;5026200;28;20049;-46
2021/12/26 09:47:50;;;;;;;31.93;17.30;;;5.70;99.90;;;5.84;73.33;96667.91;5025043;28;20051;-45
2021/12/26 09:50:21;;;;;;;24.47;15.53;;;5.60;99.90;;;5.86;73.66;96665.94;5027163;28;20053;-45
2021/12/26 09:52:53;;;;;;;26.23;14.83;;;5.70;99.90;;;5.89;73.46;96666.47;5025728;28;20057;-45
2021/12/26 09:55:25;;;;;;;26.40;13.93;;;5.80;99.90;;;5.91;73.42;96669.78;5025871;28;20053;-45
2021/12/26 09:57:53;;;;;;;24.47;14.70;;;5.80;99.90;;;5.90;73.38;96669.91;5024403;28;20038;-46
2021/12/26 10:00:21;;;;;;;29.47;15.57;;;5.70;99.90;;;5.95;73.21;96669.44;5026525;28;20079;-48
2021/12/26 10:03:11;;;;;;;25.50;14.43;;;5.80;99.90;;;5.94;73.29;96665.16;5026047;28;20545;-45
2021/12/26 10:06:14;;;;;;;25.57;13.83;;;5.80;99.90;;;5.95;73.50;96653.59;5026511;28;20606;-47
2021/12/26 10:08:57;;;;;;;26.40;14.50;;;5.80;99.90;;;5.97;73.16;96655.16;5026016;28;20049;-44
2021/12/26 10:11:32;;;;;;;30.60;16.25;;;5.80;99.90;;;5.99;73.21;96657.59;5027811;28;20340;-45
2021/12/26 10:14:26;;;;;;;39.40;21.23;;;5.80;99.90;;;5.99;72.85;96650.53;5026499;28;20045;-44
2021/12/26 10:17:01;;;;;;;26.27;15.37;;;5.80;99.90;;;6.03;73.00;96653.66;5030063;28;20045;-45
2021/12/26 10:19:38;;;;;;;27.33;14.80;;;5.80;99.90;;;6.05;73.59;96643.78;5028592;28;20041;-44
2021/12/26 10:22:10;;;;;;;26.53;15.57;;;5.90;99.90;;;6.07;73.31;96645.28;5029329;28;20340;-45
2021/12/26 10:24:45;;;;;;;25.87;15.37;;;5.90;99.90;;;6.11;73.70;96651.91;5030276;28;20061;-45
2021/12/26 10:27:19;;;;;;;27.83;15.27;;;6.00;99.90;;;6.15;73.23;96646.31;5030233;28;20341;-46
2021/12/26 10:29:55;;;;;;;31.57;16.23;;;6.00;99.90;;;6.20;73.04;96644.00;5028631;28;20051;-44
2021/12/26 10:32:32;;;;;;;23.20;13.83;;;6.10;99.90;;;6.21;73.20;96641.22;5028512;28;20057;-44
2021/12/26 10:35:10;;;;;;;27.27;14.97;;;6.10;99.90;;;6.24;73.35;96629.50;5029021;28;20054;-46
2021/12/26 10:37:51;;;;;;;32.60;15.53;;;6.10;99.90;;;6.25;73.59;96628.50;5028335;28;20065;-46
2021/12/26 10:40:33;;;;;;;25.67;13.93;;;6.10;99.90;;;6.28;73.80;96636.97;5029407;28;20052;-45
2021/12/26 10:43:10;;;;;;;27.53;14.13;;;6.10;99.90;;;6.31;73.43;96628.69;5027689;28;20304;-45
2021/12/26 10:45:38;;;;;;;23.93;14.50;;;6.20;99.90;;;6.35;73.48;96633.69;5028602;28;20061;-46
2021/12/26 10:48:08;;;;;;;24.23;13.80;;;6.20;99.90;;;6.39;73.63;96637.66;5028699;28;20063;-44